createdAt,value
2023-03-30T00:02:24.305Z,7.20
2023-03-30T00:04:12.398Z,5.00
2023-03-30T00:07:37.897Z,5.20
2023-03-30T00:09:24.733Z,7.30
2023-03-30T00:10:57.603Z,5.90
2023-03-30T00:17:45.704Z,6.60
2023-03-30T00:19:26.809Z,8.40
2023-03-30T00:24:16.013Z,4.30
2023-03-30T00:28:18.133Z,8.80
2023-03-30T00:31:56.102Z,5.10
2023-03-30T00:34:17.149Z,7.10
2023-03-30T00:35:45.709Z,5.90
2023-03-30T00:38:12.582Z,4.30
2023-03-30T00:42:19.976Z,5.80
2023-03-30T00:45:14.048Z,6.40
2023-03-30T00:46:41.247Z,8.20
2023-03-30T00:50:03.258Z,7.60
2023-03-30T00:54:15.146Z,7.40
2023-03-30T01:04:38.049Z,5.40
2023-03-30T01:06:45.951Z,6.40
2023-03-30T01:09:17.659Z,7.60
2023-03-30T01:12:07.629Z,4.60
2023-03-30T01:16:12.152Z,7.30
2023-03-30T01:18:27.431Z,4.00
2023-03-30T01:22:43.689Z,4.50
2023-03-30T01:24:33.351Z,8.40
2023-03-30T01:26:02.700Z,5.30
2023-03-30T01:27:02.236Z,5.80
2023-03-30T01:28:23.241Z,7.50
2023-03-30T01:30:03.691Z,5.00
2023-03-30T01:31:55.084Z,4.90
2023-03-30T01:36:26.110Z,6.60
2023-03-30T01:42:03.428Z,6.50
2023-03-30T01:43:53.988Z,4.70
2023-03-30T01:46:52.226Z,4.50
2023-03-30T01:48:53.309Z,8.00
2023-03-30T01:51:44.016Z,6.70
2023-03-30T01:57:05.375Z,4.40
2023-03-30T01:58:37.146Z,7.50
2023-03-30T02:00:57.172Z,5.20
2023-03-30T02:04:39.582Z,7.90
2023-03-30T02:11:08.296Z,4.20
2023-03-30T02:15:22.012Z,6.60
2023-03-30T02:17:29.242Z,5.40
2023-03-30T02:19:06.082Z,5.90
2023-03-30T02:20:34.486Z,5.50
2023-03-30T02:22:53.552Z,5.10
2023-03-30T02:25:44.528Z,7.10
2023-03-30T02:29:46.610Z,6.50
2023-03-30T02:31:15.699Z,6.80
2023-03-30T02:32:44.260Z,6.50
2023-03-30T02:34:44.589Z,5.10
2023-03-30T02:37:24.023Z,7.00
2023-03-30T02:39:57.965Z,5.00
2023-03-30T02:43:33.943Z,5.30
2023-03-30T02:45:05.353Z,7.80
2023-03-30T02:47:04.010Z,4.60
2023-03-30T02:49:43.914Z,6.20
2023-03-30T02:51:33.634Z,6.60
2023-03-30T03:00:14.646Z,6.20
2023-03-30T03:04:29.806Z,7.80
2023-03-30T03:12:18.615Z,8.20
2023-03-30T03:15:36.404Z,5.80
2023-03-30T03:18:54.035Z,4.70
2023-03-30T03:21:34.853Z,4.70
2023-03-30T03:23:55.516Z,4.80
2023-03-30T03:39:43.493Z,9.00
2023-03-30T03:42:06.175Z,3.60
2023-03-30T03:47:07.102Z,2.70
2023-03-30T03:49:23.892Z,4.30
2023-03-30T03:51:23.947Z,8.00
2023-03-30T03:57:18.455Z,6.00
2023-03-30T03:59:49.495Z,5.50
2023-03-30T04:05:04.933Z,7.10
2023-03-30T04:08:28.512Z,4.80
2023-03-30T04:12:52.899Z,5.80
2023-03-30T04:20:19.307Z,4.70
2023-03-30T04:21:49.964Z,8.60
2023-03-30T04:25:22.056Z,3.30
2023-03-30T04:27:17.958Z,4.90
2023-03-30T04:28:46.860Z,3.40
2023-03-30T04:34:18.407Z,3.40
2023-03-30T04:37:02.303Z,3.40
2023-03-30T04:38:53.934Z,4.40
2023-03-30T04:40:41.757Z,4.40
2023-03-30T04:42:32.491Z,2.60
2023-03-30T04:44:00.554Z,5.70
2023-03-30T04:46:04.066Z,4.30
2023-03-30T04:48:08.550Z,3.90
2023-03-30T04:51:17.027Z,4.50
2023-03-30T04:59:04.007Z,5.70
2023-03-30T05:01:52.843Z,7.30
2023-03-30T05:05:22.090Z,4.00
2023-03-30T05:08:42.376Z,5.50
2023-03-30T05:17:06.243Z,6.80
2023-03-30T05:20:12.692Z,7.40
2023-03-30T05:24:27.227Z,5.90
2023-03-30T05:26:56.115Z,4.10
2023-03-30T05:28:45.187Z,3.80
2023-03-30T05:31:41.513Z,3.50
2023-03-30T05:33:49.104Z,3.70
2023-03-30T05:35:18.224Z,3.30
2023-03-30T05:37:39.232Z,3.60
2023-03-30T05:39:12.254Z,3.40
2023-03-30T05:42:05.867Z,3.70
2023-03-30T05:44:24.747Z,3.20
2023-03-30T05:51:27.788Z,6.00
2023-03-30T05:53:26.400Z,6.60
2023-03-30T05:55:24.262Z,4.70
2023-03-30T05:58:56.174Z,4.50
2023-03-30T06:00:26.133Z,5.40
2023-03-30T06:04:13.204Z,3.90
2023-03-30T06:07:38.613Z,4.70
2023-03-30T06:11:07.648Z,6.70
2023-03-30T06:15:41.367Z,3.60
2023-03-30T06:18:22.968Z,7.80
2023-03-30T06:29:09.502Z,8.50
2023-03-30T06:34:28.626Z,5.60
2023-03-30T06:42:34.202Z,4.30
2023-03-30T06:47:13.538Z,2.90
2023-03-30T06:48:44.693Z,6.20
2023-03-30T06:50:43.761Z,7.10
2023-03-30T06:54:39.896Z,4.40
2023-03-30T06:57:37.825Z,6.80
2023-03-30T06:59:36.739Z,6.30
2023-03-30T07:02:52.572Z,6.10
2023-03-30T07:09:03.366Z,4.40
2023-03-30T07:11:30.278Z,6.60
2023-03-30T07:15:04.530Z,5.50
2023-03-30T07:20:26.802Z,7.00
2023-03-30T07:23:26.764Z,3.40
2023-03-30T07:24:55.750Z,8.70
2023-03-30T07:28:45.414Z,7.50
2023-03-30T07:31:14.142Z,8.20
2023-03-30T07:32:44.990Z,6.70
2023-03-30T07:35:15.734Z,6.00
2023-03-30T07:36:45.739Z,5.70
2023-03-30T07:38:17.660Z,6.60
2023-03-30T07:40:16.558Z,8.90
2023-03-30T07:42:38.036Z,5.60
2023-03-30T07:49:43.922Z,9.00
2023-03-30T07:53:57.249Z,9.00
2023-03-30T07:57:47.580Z,9.00
2023-03-30T07:59:54.202Z,8.10
2023-03-30T08:03:02.714Z,8.20
2023-03-30T08:05:22.171Z,8.90
2023-03-30T08:09:39.926Z,8.20
2023-03-30T08:11:09.799Z,7.50
2023-03-30T08:12:40.966Z,9.20
2023-03-30T08:15:12.139Z,9.30
2023-03-30T08:18:11.833Z,13.10
2023-03-30T08:24:30.833Z,8.10
2023-03-30T08:27:00.208Z,7.00
2023-03-30T08:29:04.065Z,9.40
2023-03-30T08:33:11.313Z,5.00
2023-03-30T08:35:14.470Z,8.60
2023-03-30T08:39:10.351Z,8.40
2023-03-30T08:42:31.371Z,11.80
2023-03-30T08:49:11.303Z,8.80
2023-03-30T08:53:12.730Z,10.50
2023-03-30T08:57:40.152Z,10.50
2023-03-30T08:59:40.090Z,6.70
2023-03-30T09:03:19.741Z,9.30
2023-03-30T09:04:54.025Z,8.50
2023-03-30T09:07:32.233Z,10.00
2023-03-30T09:10:28.939Z,12.10
2023-03-30T09:12:57.166Z,12.10
2023-03-30T09:22:49.347Z,11.30
2023-03-30T09:26:44.582Z,12.10
2023-03-30T09:28:16.072Z,12.00
2023-03-30T09:35:10.141Z,11.90
2023-03-30T09:41:34.085Z,12.10
2023-03-30T09:46:42.248Z,12.60
2023-03-30T09:49:33.794Z,10.20
2023-03-30T09:52:42.195Z,10.40
2023-03-30T09:55:49.928Z,9.60
2023-03-30T09:58:10.058Z,10.20
2023-03-30T10:01:52.935Z,9.40
2023-03-30T10:03:56.336Z,12.00
2023-03-30T10:05:51.916Z,13.00
2023-03-30T10:07:21.711Z,11.60
2023-03-30T10:08:51.632Z,10.20
2023-03-30T10:16:32.194Z,17.50
2023-03-30T10:18:19.837Z,11.40
2023-03-30T10:20:21.159Z,9.80
2023-03-30T10:21:52.596Z,8.90
2023-03-30T10:23:21.512Z,11.50
2023-03-30T10:25:11.585Z,9.10
2023-03-30T10:30:09.121Z,9.50
2023-03-30T10:32:40.591Z,11.00
2023-03-30T10:38:38.736Z,9.30
2023-03-30T10:43:50.417Z,9.20
2023-03-30T10:51:34.732Z,12.80
2023-03-30T10:54:45.629Z,11.90
2023-03-30T10:56:12.717Z,10.50
2023-03-30T10:59:58.630Z,12.90
2023-03-30T11:01:27.814Z,9.30
2023-03-30T11:02:56.779Z,11.60
2023-03-30T11:08:21.980Z,9.00
2023-03-30T11:11:42.042Z,8.90
2023-03-30T11:14:40.604Z,12.40
2023-03-30T11:16:57.867Z,10.90
2023-03-30T11:18:58.514Z,13.60
2023-03-30T11:20:28.935Z,14.20
2023-03-30T11:22:30.212Z,11.90
2023-03-30T11:23:56.326Z,11.80
2023-03-30T11:26:16.930Z,14.30
2023-03-30T11:31:26.932Z,9.70
2023-03-30T11:33:27.583Z,11.30
2023-03-30T11:37:29.094Z,13.50
2023-03-30T11:39:36.005Z,16.70
2023-03-30T11:43:00.545Z,12.40
2023-03-30T11:44:30.446Z,11.50
2023-03-30T11:46:33.661Z,12.60
2023-03-30T11:50:53.218Z,14.20
2023-03-30T11:54:18.599Z,13.80
2023-03-30T11:56:41.069Z,15.20
2023-03-30T11:58:46.936Z,11.60
2023-03-30T12:00:16.033Z,15.60
2023-03-30T12:01:44.691Z,18.60
2023-03-30T12:04:56.971Z,18.70
2023-03-30T12:07:24.662Z,16.90
2023-03-30T12:12:13.697Z,12.30
2023-03-30T12:17:51.091Z,17.40
2023-03-30T12:20:17.985Z,13.50
2023-03-30T12:23:08.018Z,17.90
2023-03-30T12:24:28.500Z,16.50
2023-03-30T12:25:07.523Z,16.40
2023-03-30T12:26:07.768Z,17.70
2023-03-30T12:27:38.125Z,14.20
2023-03-30T12:31:29.553Z,18.60
2023-03-30T12:32:58.364Z,17.60
2023-03-30T12:34:48.052Z,18.70
2023-03-30T12:36:16.283Z,17.80
2023-03-30T12:39:05.692Z,13.20
2023-03-30T12:41:07.499Z,11.90
2023-03-30T12:45:43.861Z,14.80
2023-03-30T12:50:47.803Z,16.50
2023-03-30T12:53:17.046Z,15.20
2023-03-30T12:54:44.088Z,14.50
2023-03-30T12:58:22.560Z,16.20
2023-03-30T12:59:21.065Z,19.10
2023-03-30T13:00:21.077Z,15.90
2023-03-30T13:05:15.612Z,16.30
2023-03-30T13:08:21.140Z,16.50
2023-03-30T13:10:20.029Z,12.30
2023-03-30T13:12:49.642Z,13.40
2023-03-30T13:14:47.942Z,20.80
2023-03-30T13:17:06.425Z,16.90
2023-03-30T13:18:57.694Z,12.50
2023-03-30T13:21:16.943Z,15.20
2023-03-30T13:24:29.353Z,14.80
2023-03-30T13:25:57.367Z,9.80
2023-03-30T13:27:26.271Z,12.90
2023-03-30T13:31:10.455Z,14.40
2023-03-30T13:33:28.024Z,16.70
2023-03-30T13:38:27.375Z,9.80
2023-03-30T13:42:05.362Z,13.00
2023-03-30T13:44:57.446Z,14.80
2023-03-30T13:47:13.991Z,13.50
2023-03-30T13:48:43.714Z,11.00
2023-03-30T13:51:32.300Z,13.10
2023-03-30T13:54:25.034Z,10.60
2023-03-30T14:01:05.799Z,10.90
2023-03-30T14:05:06.338Z,14.70
2023-03-30T14:06:34.975Z,10.00
2023-03-30T14:09:04.794Z,11.50
2023-03-30T14:10:33.549Z,15.40
2023-03-30T14:16:24.217Z,10.40
2023-03-30T14:17:53.301Z,9.20
2023-03-30T14:20:54.405Z,13.80
2023-03-30T14:23:12.989Z,11.30
2023-03-30T14:24:42.870Z,12.60
2023-03-30T14:27:31.737Z,10.00
2023-03-30T14:32:09.853Z,11.50
2023-03-30T14:34:09.504Z,13.90
2023-03-30T14:36:09.406Z,16.10
2023-03-30T14:38:25.576Z,16.90
2023-03-30T14:41:54.010Z,13.80
2023-03-30T14:43:53.305Z,9.40
2023-03-30T14:50:45.756Z,13.80
2023-03-30T14:52:41.772Z,10.30
2023-03-30T14:56:20.447Z,11.50
2023-03-30T14:57:49.314Z,12.30
2023-03-30T14:59:39.601Z,14.40
2023-03-30T15:01:34.461Z,13.80
2023-03-30T15:08:30.535Z,21.20
2023-03-30T15:12:00.359Z,16.10
2023-03-30T15:15:10.569Z,15.70
2023-03-30T15:18:08.713Z,13.60
2023-03-30T15:19:39.501Z,13.40
2023-03-30T15:24:50.095Z,14.10
2023-03-30T15:27:15.050Z,15.80
2023-03-30T15:30:05.864Z,15.60
2023-03-30T15:33:34.591Z,14.20
2023-03-30T15:36:48.639Z,16.40
2023-03-30T15:38:18.049Z,13.90
2023-03-30T15:40:16.807Z,10.30
2023-03-30T15:43:05.498Z,16.70
2023-03-30T15:49:31.864Z,18.00
2023-03-30T15:51:30.821Z,11.50
2023-03-30T15:53:01.728Z,14.10
2023-03-30T15:54:58.578Z,15.70
2023-03-30T15:58:20.348Z,14.20
2023-03-30T16:01:07.764Z,11.90
2023-03-30T16:02:36.555Z,17.40
2023-03-30T16:05:00.336Z,14.00
2023-03-30T16:06:30.170Z,18.10
2023-03-30T16:08:00.152Z,15.00
2023-03-30T16:09:29.057Z,14.60
2023-03-30T16:11:00.105Z,17.40
2023-03-30T16:13:10.576Z,13.20
2023-03-30T16:16:21.241Z,14.00
2023-03-30T16:18:42.923Z,13.80
2023-03-30T16:24:53.865Z,17.30
2023-03-30T16:26:42.668Z,11.70
2023-03-30T16:28:31.473Z,11.20
2023-03-30T16:31:01.109Z,10.10
2023-03-30T16:34:19.566Z,17.70
2023-03-30T16:35:50.945Z,12.70
2023-03-30T16:40:30.104Z,9.70
2023-03-30T16:41:59.304Z,13.90
2023-03-30T16:46:10.448Z,10.80
2023-03-30T16:49:45.042Z,10.50
2023-03-30T16:51:39.190Z,14.50
2023-03-30T16:53:09.117Z,13.60
2023-03-30T16:55:09.929Z,13.40
2023-03-30T16:58:05.777Z,13.00
2023-03-30T16:59:35.632Z,13.00
2023-03-30T17:01:05.225Z,12.30
2023-03-30T17:04:53.018Z,10.40
2023-03-30T17:06:51.754Z,10.70
2023-03-30T17:08:49.869Z,12.40
2023-03-30T17:10:47.697Z,11.50
2023-03-30T17:13:07.664Z,11.70
2023-03-30T17:14:36.521Z,8.20
2023-03-30T17:17:03.772Z,10.80
2023-03-30T17:18:32.605Z,9.70
2023-03-30T17:20:01.477Z,10.70
2023-03-30T17:21:30.368Z,10.90
2023-03-30T17:23:00.683Z,13.70
2023-03-30T17:25:03.918Z,14.70
2023-03-30T17:27:00.831Z,8.10
2023-03-30T17:28:31.169Z,11.30
2023-03-30T17:30:01.075Z,11.40
2023-03-30T17:34:17.540Z,13.20
2023-03-30T17:45:04.315Z,15.10
2023-03-30T17:49:49.474Z,7.70
2023-03-30T17:51:16.467Z,9.30
2023-03-30T17:53:15.301Z,15.50
2023-03-30T17:54:45.312Z,11.50
2023-03-30T17:56:44.410Z,11.20
2023-03-30T17:59:41.370Z,9.30
2023-03-30T18:01:40.849Z,9.30
2023-03-30T18:03:38.570Z,11.50
2023-03-30T18:05:37.620Z,10.40
2023-03-30T18:07:07.172Z,10.90
2023-03-30T18:08:36.266Z,10.50
2023-03-30T18:13:02.011Z,14.10
2023-03-30T18:15:32.063Z,12.60
2023-03-30T18:20:08.066Z,9.20
2023-03-30T18:22:34.918Z,10.30
2023-03-30T18:25:03.834Z,11.20
2023-03-30T18:30:57.749Z,12.80
2023-03-30T18:34:15.280Z,15.50
2023-03-30T18:38:40.988Z,12.50
2023-03-30T18:41:09.805Z,11.10
2023-03-30T18:44:40.905Z,9.90
2023-03-30T18:46:08.133Z,10.60
2023-03-30T18:50:32.559Z,10.80
2023-03-30T18:53:30.960Z,11.40
2023-03-30T18:56:38.353Z,11.30
2023-03-30T18:57:38.316Z,9.40
2023-03-30T18:58:38.294Z,11.70
2023-03-30T19:04:02.311Z,14.60
2023-03-30T19:06:30.738Z,13.20
2023-03-30T19:08:29.729Z,8.70
2023-03-30T19:11:17.346Z,12.60
2023-03-30T19:13:46.142Z,12.50
2023-03-30T19:20:03.883Z,11.70
2023-03-30T19:26:52.430Z,9.90
2023-03-30T19:28:21.370Z,13.70
2023-03-30T19:30:19.935Z,12.10
2023-03-30T19:31:48.821Z,13.50
2023-03-30T19:35:18.376Z,12.00
2023-03-30T19:37:45.421Z,11.60
2023-03-30T19:41:02.256Z,11.80
2023-03-30T19:43:30.077Z,13.20
2023-03-30T19:45:50.499Z,13.70
2023-03-30T19:47:18.848Z,10.50
2023-03-30T19:49:08.519Z,12.80
2023-03-30T19:51:32.729Z,11.30
2023-03-30T19:56:32.403Z,12.60
2023-03-30T19:58:31.524Z,12.80
2023-03-30T20:00:28.876Z,12.90
2023-03-30T20:03:19.800Z,10.30
2023-03-30T20:07:18.032Z,11.50
2023-03-30T20:10:16.823Z,12.50
2023-03-30T20:14:42.702Z,8.70
2023-03-30T20:16:12.509Z,9.70
2023-03-30T20:21:56.409Z,13.70
2023-03-30T20:23:26.601Z,11.70
2023-03-30T20:26:44.034Z,11.60
2023-03-30T20:28:13.488Z,9.90
2023-03-30T20:30:11.758Z,8.70
2023-03-30T20:32:10.883Z,11.00
2023-03-30T20:35:29.438Z,8.90
2023-03-30T20:36:56.620Z,7.80
2023-03-30T20:39:17.127Z,8.60
2023-03-30T20:43:13.159Z,10.10
2023-03-30T20:44:42.542Z,9.00
2023-03-30T20:47:30.959Z,10.70
2023-03-30T20:50:49.709Z,8.00
2023-03-30T20:52:17.055Z,10.60
2023-03-30T20:56:35.683Z,10.40
2023-03-30T21:03:20.824Z,11.60
2023-03-30T21:05:21.808Z,17.50
2023-03-30T21:07:48.733Z,10.40
2023-03-30T21:10:53.280Z,10.70
2023-03-30T21:13:12.349Z,10.20
2023-03-30T21:15:59.039Z,11.60
2023-03-30T21:20:48.682Z,10.60
2023-03-30T21:23:40.095Z,7.90
2023-03-30T21:27:29.109Z,12.10
2023-03-30T21:31:43.458Z,9.80
2023-03-30T21:37:09.814Z,9.40
2023-03-30T21:40:50.908Z,7.10
2023-03-30T21:43:19.480Z,11.70
2023-03-30T21:45:08.525Z,13.30
2023-03-30T21:48:00.330Z,15.80
2023-03-30T21:49:48.923Z,10.50
2023-03-30T21:51:50.018Z,16.20
2023-03-30T21:53:17.031Z,10.60
2023-03-30T21:54:49.229Z,15.50
2023-03-30T21:58:02.375Z,13.90
2023-03-30T22:00:03.036Z,8.60
2023-03-30T22:02:01.848Z,12.40
2023-03-30T22:07:28.730Z,9.20
2023-03-30T22:09:34.462Z,14.60
2023-03-30T22:11:24.630Z,9.10
2023-03-30T22:16:30.153Z,13.90
2023-03-30T22:20:17.598Z,9.90
2023-03-30T22:22:36.416Z,9.70
2023-03-30T22:25:06.702Z,9.50
2023-03-30T22:27:06.613Z,9.10
2023-03-30T22:30:15.852Z,9.80
2023-03-30T22:33:38.398Z,10.50
2023-03-30T22:37:14.129Z,10.10
2023-03-30T22:38:43.983Z,11.10
2023-03-30T22:40:14.734Z,8.50
2023-03-30T22:43:36.561Z,7.00
2023-03-30T22:46:18.227Z,9.70
2023-03-30T22:49:07.270Z,8.40
2023-03-30T22:50:36.740Z,8.30
2023-03-30T22:52:07.998Z,10.00
2023-03-30T22:59:37.878Z,8.20
2023-03-30T23:02:49.603Z,9.90
2023-03-30T23:04:18.964Z,7.90
2023-03-30T23:08:05.596Z,10.10
2023-03-30T23:09:34.480Z,10.50
2023-03-30T23:11:04.667Z,9.20
2023-03-30T23:15:44.397Z,6.70
2023-03-30T23:19:01.660Z,5.20
2023-03-30T23:20:31.686Z,9.70
2023-03-30T23:24:49.198Z,8.00
2023-03-30T23:26:21.086Z,6.20
2023-03-30T23:29:47.496Z,9.00
2023-03-30T23:32:28.004Z,7.00
2023-03-30T23:36:45.198Z,6.30
2023-03-30T23:42:44.825Z,7.60
2023-03-30T23:44:12.546Z,9.30
2023-03-30T23:47:11.245Z,9.10
2023-03-30T23:50:32.128Z,5.40
2023-03-30T23:52:01.379Z,5.40
2023-03-30T23:54:01.392Z,6.70
2023-03-30T23:55:49.409Z,6.70
2023-03-30T23:57:48.666Z,10.50
2023-03-30T23:59:18.084Z,7.80
